Baku airport (UBBB)

baku-airport

Baku International Airport

Heydar Aliyev International Airport is the main international airport in Azerbaijan located 20 km (12 mi) northeast of the capital Baku. The airport is the home of Azerbaijan Airlines, the national flag carrier. It is the busiest airport in Azerbaijan and of the Caucasus.

ICAO: UBBB, IATA: GYD

Charts: Jeppesen

Sceneries: freeware demos w. reduced resolution

 fs9     fsx     Prepar

payware: http://www.drzewiecki-design.net/

METAR:

UBBB 291400Z 14006KT 9999 -SHRA SCT060CB BKN100 13/05 Q1006 R88/CLRD// NOSIG

TAF TAF UBBB 291106Z 2912/3012 14005KT CAVOK TX17/2912Z TN05/3002Z TEMPO 2912/2916 07006KT BECMG 2916/2918 SCT012 BKN030 TEMPO 2918/3004 VRB04KT 4000 -RA BR SCT008 OVC020 BECMG 3004/3006 18012KT